Time;durP1;ratioP1;P1;durP2;ratioP2;P2;SDS_P1;SDS_P2;PMS_P1;PMS_P2;Temp;Humidity;BMP_temperature;BMP_pressure;BME280_temperature;BME280_humidity;BME280_pressure;Samples;Min_cycle;Max_cycle;Signal;HPM_P1;HPM_P2
2022/04/23 05:17:41;;;;;;;;;;;;;;;11.08;100.00;97401.38;5727627;23;19984;-73
2022/04/23 05:20:08;;;;;;;;;;;;;;;11.15;100.00;97390.88;4904786;29;19968;-74
2022/04/23 05:22:36;;;;;;;;;;;;;;;11.34;100.00;97396.97;4904837;29;20321;-74
2022/04/23 05:25:03;;;;;;;;;;;;;;;11.60;100.00;97393.34;4904534;29;19969;-74
2022/04/23 05:27:30;;;;;;;;;;;;;;;12.49;100.00;97394.03;4904848;29;19947;-72
2022/04/23 05:29:58;;;;;;;;;;;;;;;13.64;100.00;97391.81;4904285;29;20337;-72
2022/04/23 05:32:26;;;;;;;;;;;;;;;15.01;100.00;97391.97;4904569;29;20252;-72
2022/04/23 05:34:53;;;;;;;;;;;;;;;16.19;100.00;97396.09;4904816;29;20241;-72
2022/04/23 05:37:21;;;;;;;;;;;;;;;17.02;100.00;97402.69;4904985;29;20223;-72
2022/04/23 05:39:48;;;;;;;;;;;;;;;18.08;100.00;97400.44;4904946;29;19951;-72
2022/04/23 05:42:15;;;;;;;;;;;;;;;19.27;100.00;97399.84;4904067;29;19951;-72
2022/04/23 05:44:42;;;;;;;;;;;;;;;19.98;100.00;97405.69;4904501;29;19962;-72
2022/04/23 05:47:10;;;;;;;;;;;;;;;19.98;100.00;97407.75;4876305;29;20255;-73
2022/04/23 05:49:37;;;;;;;;;;;;;;;20.18;100.00;97411.56;4918718;29;19947;-73
2022/04/23 05:52:16;;;;;;;;;;;;;;;20.81;100.00;97409.50;4902632;29;19953;-74
2022/04/23 05:54:44;;;;;;;;;;;;;;;21.31;100.00;97401.91;4904276;29;19953;-74
2022/04/23 05:57:11;;;;;;;;;;;;;;;20.42;100.00;97405.13;4903398;29;19952;-74
2022/04/23 05:59:38;;;;;;;;;;;;;;;19.29;100.00;97405.84;4903938;29;19959;-74
2022/04/23 06:02:05;;;;;;;;;;;;;;;18.93;100.00;97401.06;4903198;29;19947;-73
2022/04/23 06:04:35;;;;;;;;;;;;;;;19.53;100.00;97411.63;4911046;29;19953;-73
2022/04/23 06:07:03;;;;;;;;;;;;;;;19.41;100.00;97412.63;4923431;29;19946;-73
2022/04/23 06:09:30;;;;;;;;;;;;;;;18.89;100.00;97417.44;4922447;29;20365;-73
2022/04/23 06:11:57;;;;;;;;;;;;;;;18.30;100.00;97418.06;4909805;29;19955;-73
2022/04/23 06:14:25;;;;;;;;;;;;;;;17.49;100.00;97412.97;4894846;29;19946;-73
2022/04/23 06:16:52;;;;;;;;;;;;;;;16.90;100.00;97406.41;4884896;29;19956;-73
2022/04/23 06:19:19;;;;;;;;;;;;;;;17.01;100.00;97408.81;4893465;29;19977;-73
2022/04/23 06:21:46;;;;;;;;;;;;;;;16.79;100.00;97427.81;4903987;29;20338;-72
2022/04/23 06:24:14;;;;;;;;;;;;;;;16.59;100.00;97413.25;4903605;29;19949;-73
2022/04/23 06:26:42;;;;;;;;;;;;;;;16.72;100.00;97414.78;4886529;29;20156;-73
2022/04/23 06:29:09;;;;;;;;;;;;;;;16.38;100.00;97412.72;4903295;29;20298;-75
2022/04/23 06:31:36;;;;;;;;;;;;;;;16.10;100.00;97413.75;4903549;29;19949;-74
2022/04/23 06:34:04;;;;;;;;;;;;;;;16.06;100.00;97403.84;4902737;29;19956;-74
2022/04/23 06:36:33;;;;;;;;;;;;;;;16.24;100.00;97416.06;4903320;29;19951;-74
2022/04/23 06:39:00;;;;;;;;;;;;;;;16.37;100.00;97413.19;4902496;29;19958;-74
2022/04/23 06:41:27;;;;;;;;;;;;;;;16.07;100.00;97414.66;4886968;29;20357;-74
2022/04/23 06:43:54;;;;;;;;;;;;;;;16.23;100.00;97417.34;4886666;29;19952;-74
2022/04/23 06:46:22;;;;;;;;;;;;;;;16.42;100.00;97421.88;4902714;29;19970;-74
2022/04/23 06:48:49;;;;;;;;;;;;;;;16.48;100.00;97432.59;4899678;29;19971;-73
2022/04/23 06:51:17;;;;;;;;;;;;;;;16.06;100.00;97434.88;4886621;29;20230;-74
2022/04/23 06:53:44;;;;;;;;;;;;;;;15.91;100.00;97445.03;4903519;29;19965;-74
2022/04/23 06:56:11;;;;;;;;;;;;;;;16.02;100.00;97445.47;4901864;29;19954;-74
2022/04/23 06:58:39;;;;;;;;;;;;;;;16.04;100.00;97449.41;4903372;29;19969;-73
2022/04/23 07:01:06;;;;;;;;;;;;;;;15.79;100.00;97441.00;4902935;29;20364;-74
2022/04/23 07:03:33;;;;;;;;;;;;;;;15.56;100.00;97436.53;4902676;29;19955;-73
2022/04/23 07:06:02;;;;;;;;;;;;;;;15.50;100.00;97446.00;4902420;29;19971;-73
2022/04/23 07:08:29;;;;;;;;;;;;;;;15.53;100.00;97443.06;4902217;29;20372;-73
2022/04/23 07:10:58;;;;;;;;;;;;;;;15.22;100.00;97444.81;4902554;29;19950;-73
2022/04/23 07:13:25;;;;;;;;;;;;;;;15.24;100.00;97447.19;4903109;29;19948;-73
2022/04/23 07:15:52;;;;;;;;;;;;;;;15.57;100.00;97459.84;4902617;29;19964;-73
2022/04/23 07:18:19;;;;;;;;;;;;;;;15.81;100.00;97451.81;4903015;29;19969;-74
2022/04/23 07:20:47;;;;;;;;;;;;;;;15.85;100.00;97458.91;4902734;29;19957;-74
2022/04/23 07:26:00;;;;;;;;;;;;;;;15.81;100.00;97446.19;4886831;29;19972;-74
2022/04/23 07:28:27;;;;;;;;;;;;;;;15.88;100.00;97446.75;4902454;29;19948;-73
2022/04/23 07:30:54;;;;;;;;;;;;;;;15.95;100.00;97454.16;4903141;29;19952;-73
2022/04/23 07:38:53;;;;;;;;;;;;;;;16.16;100.00;97450.63;4883485;29;19949;-74
2022/04/23 07:41:20;;;;;;;;;;;;;;;16.36;100.00;97451.91;4883902;29;19948;-74
2022/04/23 07:43:48;;;;;;;;;;;;;;;16.25;100.00;97453.53;4883579;29;19949;-73
2022/04/23 07:46:15;;;;;;;;;;;;;;;15.77;100.00;97440.69;4883494;29;19973;-74
2022/04/23 07:48:42;;;;;;;;;;;;;;;15.49;100.00;97431.13;4867528;29;20347;-74
2022/04/23 07:51:10;;;;;;;;;;;;;;;15.43;100.00;97437.75;4883401;29;19949;-74
2022/04/23 07:53:37;;;;;;;;;;;;;;;15.48;100.00;97443.63;4883823;29;19945;-73
2022/04/23 07:56:05;;;;;;;;;;;;;;;15.33;100.00;97448.09;4887557;29;19947;-74
2022/04/23 07:58:32;;;;;;;;;;;;;;;15.12;100.00;97451.56;4893749;29;19956;-74
2022/04/23 08:00:59;;;;;;;;;;;;;;;15.11;100.00;97447.19;4892814;29;19959;-74
2022/04/23 08:03:29;;;;;;;;;;;;;;;15.10;100.00;97443.56;4891098;29;19951;-74
2022/04/23 08:05:57;;;;;;;;;;;;;;;14.83;100.00;97451.63;4883077;29;19967;-74
2022/04/23 08:08:24;;;;;;;;;;;;;;;14.67;100.00;97456.53;4895276;29;19956;-74
2022/04/23 08:10:51;;;;;;;;;;;;;;;14.70;100.00;97466.88;4902004;29;19956;-74
2022/04/23 08:13:19;;;;;;;;;;;;;;;14.68;100.00;97469.34;4886005;29;19951;-73
2022/04/23 08:15:47;;;;;;;;;;;;;;;14.47;100.00;97465.13;4886562;29;20247;-73
2022/04/23 08:18:14;;;;;;;;;;;;;;;14.54;100.00;97470.56;4904910;29;19978;-73
2022/04/23 08:20:42;;;;;;;;;;;;;;;14.53;100.00;97474.59;4906164;29;19978;-73
2022/04/23 08:23:09;;;;;;;;;;;;;;;14.63;100.00;97473.50;4905147;29;20249;-73
2022/04/23 08:25:36;;;;;;;;;;;;;;;14.40;100.00;97468.16;4905316;29;19947;-73
2022/04/23 08:30:49;;;;;;;;;;;;;;;14.44;100.00;97471.63;4905961;29;19955;-73
2022/04/23 08:33:17;;;;;;;;;;;;;;;14.43;100.00;97472.84;4905024;29;19948;-73
2022/04/23 08:35:44;;;;;;;;;;;;;;;14.55;100.00;97474.16;4906277;29;19945;-74
2022/04/23 08:38:11;;;;;;;;;;;;;;;14.54;100.00;97478.19;4905868;29;19947;-73
2022/04/23 08:40:44;;;;;;;;;;;;;;;14.55;100.00;97471.34;4904156;29;20225;-73
2022/04/23 08:43:11;;;;;;;;;;;;;;;14.45;100.00;97478.84;4897958;29;20262;-74
2022/04/23 08:45:39;;;;;;;;;;;;;;;14.58;100.00;97470.44;4892925;29;20274;-74
2022/04/23 08:48:07;;;;;;;;;;;;;;;14.71;100.00;97472.09;4897053;29;19964;-73
2022/04/23 08:50:38;;;;;;;;;;;;;;;14.75;100.00;97471.97;4898996;29;20372;-74
2022/04/23 08:53:07;;;;;;;;;;;;;;;14.92;100.00;97468.66;4904537;29;19957;-74
2022/04/23 08:55:35;;;;;;;;;;;;;;;14.95;100.00;97464.16;4905225;29;19949;-73
2022/04/23 08:58:02;;;;;;;;;;;;;;;14.92;100.00;97471.47;4904311;29;19953;-74
2022/04/23 09:00:29;;;;;;;;;;;;;;;14.89;100.00;97466.72;4904520;29;20372;-74
2022/04/23 09:02:57;;;;;;;;;;;;;;;15.06;100.00;97473.09;4904661;29;19956;-73
2022/04/23 09:05:27;;;;;;;;;;;;;;;15.01;100.00;97482.06;4904134;29;19948;-73
2022/04/23 09:07:56;;;;;;;;;;;;;;;15.06;100.00;97475.91;4903604;29;19963;-74
2022/04/23 09:10:45;;;;;;;;;;;;;;;15.02;100.00;97476.00;4887054;29;19949;-73
2022/04/23 09:13:26;;;;;;;;;;;;;;;15.16;100.00;97483.22;4897488;29;20342;-74
2022/04/23 09:24:20;;;;;;;;;;;;;;;15.46;100.00;97476.28;4905011;29;19961;-73
2022/04/23 09:27:03;;;;;;;;;;;;;;;15.61;100.00;97481.03;4903793;29;20001;-74
2022/04/23 09:29:30;;;;;;;;;;;;;;;15.57;100.00;97486.00;4904993;29;20018;-74
2022/04/23 09:32:09;;;;;;;;;;;;;;;15.58;100.00;97495.22;4904942;29;19946;-73
2022/04/23 09:34:38;;;;;;;;;;;;;;;15.86;100.00;97504.81;4903859;29;20248;-74
2022/04/23 09:37:05;;;;;;;;;;;;;;;16.04;100.00;97507.84;4904725;29;19951;-73
2022/04/23 09:39:38;;;;;;;;;;;;;;;16.10;100.00;97501.19;4903436;29;19957;-75
2022/04/23 09:42:15;;;;;;;;;;;;;;;15.85;100.00;97501.22;4897090;29;19961;-74
2022/04/23 09:44:43;;;;;;;;;;;;;;;15.90;100.00;97503.47;4898105;29;19958;-75
2022/04/23 09:47:12;;;;;;;;;;;;;;;16.02;100.00;97496.22;4904025;29;20274;-76
2022/04/23 09:49:53;;;;;;;;;;;;;;;15.66;100.00;97508.66;4904008;29;20347;-74
2022/04/23 09:52:26;;;;;;;;;;;;;;;15.71;100.00;97499.66;4903912;29;19949;-73
2022/04/23 09:55:11;;;;;;;;;;;;;;;15.36;100.00;97495.06;4904818;29;19951;-74
2022/04/23 09:57:38;;;;;;;;;;;;;;;15.54;100.00;97500.19;4904354;29;19952;-76
2022/04/23 10:00:06;;;;;;;;;;;;;;;15.48;100.00;97499.19;4901982;29;19949;-77
2022/04/23 10:02:34;;;;;;;;;;;;;;;15.35;100.00;97499.16;4904107;29;19963;-75
2022/04/23 10:05:02;;;;;;;;;;;;;;;15.33;100.00;97506.47;4901087;29;20364;-77
2022/04/23 10:07:30;;;;;;;;;;;;;;;15.30;100.00;97493.28;4904143;29;19967;-79
2022/04/23 10:10:01;;;;;;;;;;;;;;;15.28;100.00;97493.72;4901350;29;19951;-78
2022/04/23 10:12:32;;;;;;;;;;;;;;;15.12;100.00;97491.78;4903872;29;19948;-77
2022/04/23 10:15:00;;;;;;;;;;;;;;;15.17;100.00;97481.19;4904106;29;20343;-78
2022/04/23 10:17:28;;;;;;;;;;;;;;;15.11;100.00;97483.78;4904052;29;20328;-74
2022/04/23 10:19:55;;;;;;;;;;;;;;;15.23;100.00;97490.69;4903820;29;19983;-74
2022/04/23 10:22:29;;;;;;;;;;;;;;;15.32;100.00;97493.59;4902786;29;20282;-74
2022/04/23 10:25:08;;;;;;;;;;;;;;;15.26;100.00;97492.59;4903834;29;19954;-74
2022/04/23 10:27:36;;;;;;;;;;;;;;;15.16;100.00;97490.91;4903924;29;19973;-74
2022/04/23 10:30:06;;;;;;;;;;;;;;;15.23;100.00;97479.41;4903602;29;19956;-74
2022/04/23 10:32:40;;;;;;;;;;;;;;;15.08;100.00;97484.69;4903635;29;19986;-74
2022/04/23 10:35:27;;;;;;;;;;;;;;;14.94;100.00;97493.56;4903261;29;20030;-74
2022/04/23 10:37:56;;;;;;;;;;;;;;;14.98;100.00;97497.84;4890063;29;19947;-74
2022/04/23 10:40:23;;;;;;;;;;;;;;;14.91;100.00;97500.06;4903698;29;19956;-74
2022/04/23 10:43:05;;;;;;;;;;;;;;;14.64;100.00;97502.44;4903108;29;19954;-74
2022/04/23 10:45:34;;;;;;;;;;;;;;;14.67;100.00;97504.38;4902173;29;19961;-74
2022/04/23 10:48:19;;;;;;;;;;;;;;;14.58;100.00;97493.75;4902864;29;19970;-73
2022/04/23 10:51:05;;;;;;;;;;;;;;;14.68;100.00;97506.72;4903093;29;19955;-73
2022/04/23 10:53:37;;;;;;;;;;;;;;;14.68;100.00;97498.28;4900327;29;20040;-74
2022/04/23 10:56:05;;;;;;;;;;;;;;;14.64;100.00;97500.44;4902066;29;19950;-75
2022/04/23 10:58:33;;;;;;;;;;;;;;;14.67;100.00;97501.56;4899309;29;19958;-74
2022/04/23 11:01:22;;;;;;;;;;;;;;;14.68;100.00;97505.94;4900114;29;19952;-74
2022/04/23 11:03:52;;;;;;;;;;;;;;;14.58;100.00;97498.56;4898058;29;20264;-74
2022/04/23 11:12:26;;;;;;;;;;;;;;;14.59;100.00;97486.91;4899789;29;19956;-75
2022/04/23 11:14:55;;;;;;;;;;;;;;;14.60;100.00;97482.84;4901378;29;19965;-73
2022/04/23 11:17:30;;;;;;;;;;;;;;;14.61;100.00;97492.06;4901759;29;19961;-74
2022/04/23 11:19:59;;;;;;;;;;;;;;;14.63;100.00;97498.84;4882894;29;19950;-74
2022/04/23 11:22:27;;;;;;;;;;;;;;;14.66;100.00;97497.94;4898098;29;19952;-74
2022/04/23 11:24:55;;;;;;;;;;;;;;;14.78;100.00;97494.41;4900957;29;19955;-75
2022/04/23 11:27:26;;;;;;;;;;;;;;;14.71;100.00;97485.34;4901621;29;19970;-74
2022/04/23 11:29:54;;;;;;;;;;;;;;;14.76;100.00;97485.59;4900909;29;19955;-74
2022/04/23 11:32:28;;;;;;;;;;;;;;;14.79;100.00;97478.31;4895980;29;19959;-76
2022/04/23 11:34:56;;;;;;;;;;;;;;;14.92;100.00;97471.47;4901235;29;19950;-74
2022/04/23 11:37:33;;;;;;;;;;;;;;;14.92;100.00;97462.22;4895356;29;20343;-74
2022/04/23 11:40:08;;;;;;;;;;;;;;;14.98;100.00;97457.63;4890719;29;19956;-74
2022/04/23 11:42:42;;;;;;;;;;;;;;;15.04;100.00;97462.25;4897978;29;19954;-74
2022/04/23 11:45:10;;;;;;;;;;;;;;;15.08;100.00;97450.88;4901912;29;19950;-74
2022/04/23 11:47:38;;;;;;;;;;;;;;;15.23;100.00;97442.81;4902335;29;19967;-74
2022/04/23 11:50:31;;;;;;;;;;;;;;;15.30;100.00;97443.38;4902247;29;19958;-74
2022/04/23 11:52:59;;;;;;;;;;;;;;;15.41;100.00;97434.56;4898313;29;19951;-73
2022/04/23 11:55:27;;;;;;;;;;;;;;;15.52;100.00;97432.25;4901938;29;19947;-74
2022/04/23 11:57:55;;;;;;;;;;;;;;;15.64;100.00;97432.25;4901855;29;19955;-74
2022/04/23 12:00:24;;;;;;;;;;;;;;;15.77;100.00;97438.63;4896326;29;19962;-74
2022/04/23 12:02:52;;;;;;;;;;;;;;;15.87;100.00;97433.09;4896934;29;20370;-75
2022/04/23 12:05:23;;;;;;;;;;;;;;;15.92;100.00;97427.66;4899338;29;19948;-74
2022/04/23 12:07:51;;;;;;;;;;;;;;;16.17;100.00;97432.44;4897037;29;19972;-74
2022/04/23 12:10:23;;;;;;;;;;;;;;;16.34;100.00;97417.72;4899801;29;19981;-74
2022/04/23 12:12:51;;;;;;;;;;;;;;;16.50;100.00;97413.94;4892493;29;19979;-75
2022/04/23 12:15:21;;;;;;;;;;;;;;;16.76;100.00;97411.78;4893142;29;19967;-74
2022/04/23 12:17:50;;;;;;;;;;;;;;;16.74;100.00;97420.75;4897943;29;19969;-75
2022/04/23 12:20:21;;;;;;;;;;;;;;;16.64;100.00;97421.91;4896946;29;19951;-75
2022/04/23 12:22:58;;;;;;;;;;;;;;;16.49;100.00;97412.34;4896900;29;19955;-74
2022/04/23 12:25:35;;;;;;;;;;;;;;;16.35;100.00;97407.25;4897008;29;19958;-75
2022/04/23 12:42:06;;;;;;;;;;;;;;;15.91;100.00;97408.41;4898597;29;19955;-76
2022/04/23 12:44:41;;;;;;;;;;;;;;;15.82;100.00;97405.50;4899271;29;20364;-75
2022/04/23 12:47:10;;;;;;;;;;;;;;;15.93;100.00;97398.25;4894133;29;20365;-74
2022/04/23 12:49:47;;;;;;;;;;;;;;;15.91;100.00;97409.19;4899455;29;19973;-74
2022/04/23 12:52:21;;;;;;;;;;;;;;;15.74;100.00;97402.91;4897187;29;19952;-75
2022/04/23 12:55:07;;;;;;;;;;;;;;;15.80;100.00;97413.63;4896185;29;19955;-74
2022/04/23 12:57:35;;;;;;;;;;;;;;;15.67;100.00;97405.94;4898249;29;19955;-74
2022/04/23 13:00:03;;;;;;;;;;;;;;;15.69;100.00;97405.50;4899746;29;19949;-74
2022/04/23 13:02:38;;;;;;;;;;;;;;;15.62;100.00;97397.28;4899735;29;19952;-74
2022/04/23 13:05:06;;;;;;;;;;;;;;;15.55;100.00;97395.47;4888063;29;20227;-75
2022/04/23 13:10:20;;;;;;;;;;;;;;;15.42;100.00;97400.31;4902257;29;19978;-75
2022/04/23 13:12:48;;;;;;;;;;;;;;;15.49;100.00;97402.16;4893856;29;19953;-76
2022/04/23 13:15:18;;;;;;;;;;;;;;;15.45;100.00;97399.47;4898744;29;19949;-74
2022/04/23 13:17:46;;;;;;;;;;;;;;;15.41;100.00;97386.66;4900244;29;19972;-76
2022/04/23 13:20:15;;;;;;;;;;;;;;;15.37;100.00;97391.63;4898546;29;19953;-76
2022/04/23 13:22:43;;;;;;;;;;;;;;;15.34;100.00;97395.34;4900679;29;19959;-74
2022/04/23 13:25:15;;;;;;;;;;;;;;;15.33;100.00;97399.44;4899196;29;19955;-75
2022/04/23 13:27:43;;;;;;;;;;;;;;;15.29;100.00;97399.53;4900877;29;19957;-74
2022/04/23 13:30:11;;;;;;;;;;;;;;;15.27;100.00;97398.41;4899605;29;19946;-74
2022/04/23 13:32:39;;;;;;;;;;;;;;;15.27;100.00;97398.41;4898344;29;19955;-75
2022/04/23 13:35:08;;;;;;;;;;;;;;;15.24;100.00;97393.66;4899487;29;19956;-76
2022/04/23 13:37:35;;;;;;;;;;;;;;;15.21;100.00;97386.13;4899594;29;19951;-76
2022/04/23 13:40:03;;;;;;;;;;;;;;;15.18;100.00;97378.59;4903916;29;19949;-73
2022/04/23 13:42:30;;;;;;;;;;;;;;;15.18;100.00;97378.59;4898409;29;19974;-75
2022/04/23 13:44:59;;;;;;;;;;;;;;;15.12;100.00;97370.69;4896146;29;19960;-74
2022/04/23 13:47:31;;;;;;;;;;;;;;;15.13;100.00;97363.84;4898726;29;20264;-79
2022/04/23 13:50:00;;;;;;;;;;;;;;;15.16;100.00;97367.75;4898574;29;19975;-73
2022/04/23 13:52:27;;;;;;;;;;;;;;;15.15;100.00;97357.75;4900790;29;20222;-75
2022/04/23 13:54:55;;;;;;;;;;;;;;;15.14;100.00;97362.59;4900675;29;19953;-75
2022/04/23 13:57:24;;;;;;;;;;;;;;;15.17;100.00;97360.09;4901988;29;19994;-74
2022/04/23 13:59:51;;;;;;;;;;;;;;;15.19;100.00;97349.97;4897078;29;19956;-75
2022/04/23 14:10:36;;;;;;;;;;;;;;;15.22;100.00;97351.09;4903280;29;20023;-74
2022/04/23 14:13:03;;;;;;;;;;;;;;;15.21;100.00;97349.53;4902623;29;19948;-74
2022/04/23 14:15:31;;;;;;;;;;;;;;;15.21;100.00;97358.75;4900529;29;19952;-74
2022/04/23 14:18:00;;;;;;;;;;;;;;;15.18;100.00;97358.88;4902955;29;19970;-75
2022/04/23 14:20:28;;;;;;;;;;;;;;;15.17;100.00;97346.81;4903886;29;19949;-73
2022/04/23 14:23:00;;;;;;;;;;;;;;;15.17;100.00;97341.19;4902665;29;19959;-74
2022/04/23 14:25:30;;;;;;;;;;;;;;;15.13;100.00;97301.88;4903967;29;20028;-76
2022/04/23 14:28:00;;;;;;;;;;;;;;;15.23;100.00;97310.44;4900006;29;19949;-73
2022/04/23 14:30:28;;;;;;;;;;;;;;;15.31;100.00;97318.19;4902907;29;19970;-73
2022/04/23 14:32:55;;;;;;;;;;;;;;;15.32;100.00;97314.13;4902820;29;19949;-73
2022/04/23 14:35:23;;;;;;;;;;;;;;;15.38;100.00;97323.56;4901558;29;19955;-73
2022/04/23 14:37:50;;;;;;;;;;;;;;;15.41;100.00;97330.31;4900388;29;20208;-73
2022/04/23 14:40:18;;;;;;;;;;;;;;;15.43;100.00;97330.69;4892249;29;19949;-73
2022/04/23 14:42:45;;;;;;;;;;;;;;;15.44;100.00;97333.03;4895319;29;19952;-76
2022/04/23 14:45:17;;;;;;;;;;;;;;;15.43;100.00;97342.72;4903068;29;19949;-78
2022/04/23 14:47:45;;;;;;;;;;;;;;;15.37;100.00;97343.75;4903131;29;19952;-78
2022/04/23 14:50:15;;;;;;;;;;;;;;;15.31;100.00;97351.97;4901819;29;19964;-76
2022/04/23 14:55:31;;;;;;;;;;;;;;;15.21;100.00;97338.25;4901795;29;19948;-74
2022/04/23 14:57:59;;;;;;;;;;;;;;;15.19;100.00;97341.50;4884829;29;19949;-74
2022/04/23 15:00:26;;;;;;;;;;;;;;;15.18;100.00;97323.06;4884624;29;19955;-74
2022/04/23 15:02:54;;;;;;;;;;;;;;;15.19;100.00;97318.19;4902749;29;19948;-74
2022/04/23 15:05:22;;;;;;;;;;;;;;;15.14;100.00;97297.81;4902580;29;20376;-74
2022/04/23 15:07:49;;;;;;;;;;;;;;;15.15;100.00;97284.53;4901319;29;19964;-74
2022/04/23 15:10:16;;;;;;;;;;;;;;;15.16;100.00;97280.44;4902206;29;19965;-73
2022/04/23 15:12:44;;;;;;;;;;;;;;;15.25;100.00;97297.47;4902354;29;19954;-73
2022/04/23 15:15:13;;;;;;;;;;;;;;;15.27;100.00;97311.09;4902861;29;19958;-74
2022/04/23 15:17:42;;;;;;;;;;;;;;;15.27;100.00;97317.50;4902476;29;20267;-73
2022/04/23 15:20:10;;;;;;;;;;;;;;;15.26;100.00;97304.66;4903174;29;20209;-73
2022/04/23 15:22:37;;;;;;;;;;;;;;;15.26;100.00;97301.84;4902519;29;19956;-73
2022/04/23 15:25:05;;;;;;;;;;;;;;;15.28;100.00;97307.03;4901289;29;20239;-74
2022/04/23 15:27:34;;;;;;;;;;;;;;;15.29;100.00;97311.41;4902904;29;19952;-73
2022/04/23 15:30:01;;;;;;;;;;;;;;;15.29;100.00;97314.22;4902353;29;20266;-74
2022/04/23 15:32:29;;;;;;;;;;;;;;;15.28;100.00;97305.03;4898544;29;20211;-73
2022/04/23 15:34:56;;;;;;;;;;;;;;;15.27;100.00;97297.00;4896323;29;19949;-73
2022/04/23 15:37:23;;;;;;;;;;;;;;;15.24;100.00;97292.28;4898783;29;19967;-73
2022/04/23 15:39:51;;;;;;;;;;;;;;;15.25;100.00;97282.59;4902737;29;19956;-73
2022/04/23 15:42:19;;;;;;;;;;;;;;;15.26;100.00;97270.09;4893640;29;19948;-74
2022/04/23 15:44:46;;;;;;;;;;;;;;;15.25;100.00;97271.34;4901918;29;19948;-74
2022/04/23 15:47:13;;;;;;;;;;;;;;;15.25;100.00;97283.38;4902688;29;19951;-73
2022/04/23 15:49:41;;;;;;;;;;;;;;;15.25;100.00;97291.03;4902183;29;19975;-73
2022/04/23 15:52:11;;;;;;;;;;;;;;;15.24;100.00;97289.47;4902250;29;20249;-73
2022/04/23 15:54:38;;;;;;;;;;;;;;;15.23;100.00;97282.28;4902308;29;19951;-73
2022/04/23 15:57:05;;;;;;;;;;;;;;;15.27;100.00;97271.66;4901708;29;20362;-74
2022/04/23 15:59:32;;;;;;;;;;;;;;;15.27;100.00;97266.81;4900964;29;20218;-74
2022/04/23 16:02:00;;;;;;;;;;;;;;;15.33;100.00;97265.00;4887746;29;19953;-73
2022/04/23 16:04:27;;;;;;;;;;;;;;;15.32;100.00;97252.16;4899406;29;19949;-74
2022/04/23 16:06:54;;;;;;;;;;;;;;;15.32;100.00;97254.97;4891405;29;19956;-74
2022/04/23 16:09:22;;;;;;;;;;;;;;;15.30;100.00;97265.13;4901390;29;19971;-73
2022/04/23 16:11:49;;;;;;;;;;;;;;;15.26;100.00;97256.78;4898877;29;19955;-74
2022/04/23 16:14:17;;;;;;;;;;;;;;;15.22;100.00;97253.31;4898211;29;19958;-74
2022/04/23 16:17:04;;;;;;;;;;;;;;;15.20;100.00;97257.81;4896078;29;20255;-74
2022/04/23 16:19:31;;;;;;;;;;;;;;;15.23;100.00;97249.25;4897703;29;19975;-74
2022/04/23 16:21:58;;;;;;;;;;;;;;;15.26;100.00;97253.19;4898405;29;21157;-74
2022/04/23 16:24:26;;;;;;;;;;;;;;;15.26;100.00;97245.53;4900734;29;19953;-74
2022/04/23 16:26:53;;;;;;;;;;;;;;;15.27;100.00;97249.91;4901617;29;19975;-74
2022/04/23 16:29:20;;;;;;;;;;;;;;;15.32;100.00;97245.75;4900051;29;19970;-80
2022/04/23 16:31:48;;;;;;;;;;;;;;;15.33;100.00;97236.06;4902397;29;19951;-77
2022/04/23 16:34:15;;;;;;;;;;;;;;;15.35;100.00;97222.31;4902211;29;19947;-76
2022/04/23 16:48:00;;;;;;;;;;;;;;;15.11;100.00;97241.63;4905300;29;20475;-75
2022/04/23 16:50:34;;;;;;;;;;;;;;;15.12;100.00;97243.19;4903031;29;19967;-75
2022/04/23 16:53:01;;;;;;;;;;;;;;;15.05;100.00;97232.97;4905571;29;19957;-75
2022/04/23 16:55:29;;;;;;;;;;;;;;;15.10;100.00;97229.56;4901567;29;19950;-75
2022/04/23 16:57:57;;;;;;;;;;;;;;;14.95;100.00;97220.03;4902972;29;19949;-76
2022/04/23 17:00:24;;;;;;;;;;;;;;;14.95;100.00;97217.22;4904078;29;19955;-74
2022/04/23 17:02:51;;;;;;;;;;;;;;;14.95;100.00;97210.78;4904339;29;19951;-74
2022/04/23 17:05:19;;;;;;;;;;;;;;;15.00;100.00;97198.97;4904702;29;19965;-74
2022/04/23 17:07:50;;;;;;;;;;;;;;;14.92;100.00;97201.22;4905038;29;19947;-74
2022/04/23 17:10:18;;;;;;;;;;;;;;;14.86;100.00;97188.19;4907370;29;19949;-74
2022/04/23 17:12:45;;;;;;;;;;;;;;;14.82;100.00;97176.22;4907501;29;19962;-75
2022/04/23 17:15:12;;;;;;;;;;;;;;;14.79;100.00;97175.16;4888185;29;19949;-74
2022/04/23 17:17:40;;;;;;;;;;;;;;;14.80;100.00;97178.72;4905110;29;20364;-75
2022/04/23 17:20:08;;;;;;;;;;;;;;;14.75;100.00;97176.47;4904759;29;20345;-75
2022/04/23 17:22:35;;;;;;;;;;;;;;;14.72;100.00;97169.72;4904627;29;19951;-74
2022/04/23 17:25:04;;;;;;;;;;;;;;;14.71;100.00;97178.63;4897412;29;20239;-73
2022/04/23 17:27:31;;;;;;;;;;;;;;;14.72;100.00;97160.53;4901483;29;19947;-74
2022/04/23 17:29:59;;;;;;;;;;;;;;;14.71;100.00;97150.50;4901768;29;19965;-74
2022/04/23 17:32:26;;;;;;;;;;;;;;;14.71;100.00;97150.50;4901168;29;19956;-75
2022/04/23 17:34:54;;;;;;;;;;;;;;;14.61;100.00;97151.63;4900950;29;19948;-75
2022/04/23 17:37:21;;;;;;;;;;;;;;;14.57;100.00;97151.75;4898576;29;19949;-74
2022/04/23 17:39:49;;;;;;;;;;;;;;;14.58;100.00;97152.53;4903463;29;20334;-74
2022/04/23 17:42:17;;;;;;;;;;;;;;;14.58;100.00;97147.69;4898731;29;19951;-75
2022/04/23 17:44:44;;;;;;;;;;;;;;;14.54;100.00;97138.59;4889163;29;19955;-73
2022/04/23 17:47:13;;;;;;;;;;;;;;;14.52;100.00;97143.09;4900883;29;19959;-73
2022/04/23 17:49:40;;;;;;;;;;;;;;;14.52;100.00;97143.91;4901802;29;19978;-73
2022/04/23 17:52:08;;;;;;;;;;;;;;;14.45;100.00;97144.13;4900636;29;19951;-73
2022/04/23 17:54:36;;;;;;;;;;;;;;;14.41;100.00;97123.75;4901426;29;19962;-73
2022/04/23 17:57:03;;;;;;;;;;;;;;;14.39;100.00;97110.16;4903466;29;20026;-73
2022/04/23 17:59:31;;;;;;;;;;;;;;;14.38;100.00;97104.97;4901867;29;20334;-73
2022/04/23 18:07:34;;;;;;;;;;;;;;;14.32;100.00;97098.34;4888751;29;19957;-73
2022/04/23 18:10:03;;;;;;;;;;;;;;;14.22;100.00;97094.63;4888379;29;19950;-73
2022/04/23 18:12:32;;;;;;;;;;;;;;;14.12;100.00;97094.94;4901382;29;19961;-73
2022/04/23 18:14:59;;;;;;;;;;;;;;;14.07;100.00;97078.66;4893038;29;19954;-73
2022/04/23 18:17:26;;;;;;;;;;;;;;;14.03;100.00;97084.41;4899838;29;19952;-73
2022/04/23 18:19:54;;;;;;;;;;;;;;;14.01;100.00;97089.66;4884905;29;19954;-73
2022/04/23 18:22:21;;;;;;;;;;;;;;;13.96;100.00;97092.25;4898773;29;19947;-73
2022/04/23 18:24:48;;;;;;;;;;;;;;;13.91;100.00;97092.81;4902918;29;19955;-73
2022/04/23 18:27:16;;;;;;;;;;;;;;;13.99;100.00;97092.13;4903751;29;19947;-74
2022/04/23 18:29:45;;;;;;;;;;;;;;;13.87;100.00;97098.53;4898052;29;20345;-73
2022/04/23 18:32:12;;;;;;;;;;;;;;;13.89;100.00;97098.09;4901338;29;19972;-76
2022/04/23 18:34:40;;;;;;;;;;;;;;;13.88;100.00;97094.50;4900451;29;19961;-76
2022/04/23 18:37:07;;;;;;;;;;;;;;;13.94;100.00;97095.50;4899905;29;19949;-74
2022/04/23 18:39:35;;;;;;;;;;;;;;;13.96;100.00;97092.25;4898401;29;19957;-76
2022/04/23 18:42:02;;;;;;;;;;;;;;;13.95;100.00;97087.88;4900045;29;19957;-74
2022/04/23 18:44:30;;;;;;;;;;;;;;;13.95;100.00;97090.69;4900256;29;19954;-76
2022/04/23 18:46:57;;;;;;;;;;;;;;;13.94;100.00;97108.78;4897446;29;19951;-77
2022/04/23 18:49:24;;;;;;;;;;;;;;;13.90;100.00;97130.56;4882398;29;19949;-78
2022/04/23 18:51:52;;;;;;;;;;;;;;;13.92;100.00;97147.78;4882129;29;19966;-77
2022/04/23 18:54:19;;;;;;;;;;;;;;;13.90;100.00;97158.69;4899719;29;19948;-78
2022/04/23 18:56:47;;;;;;;;;;;;;;;13.89;100.00;97166.31;4897046;29;19953;-77
2022/04/23 18:59:14;;;;;;;;;;;;;;;13.96;100.00;97170.97;4897191;29;19979;-75
2022/04/23 19:01:41;;;;;;;;;;;;;;;13.93;100.00;97166.22;4899755;29;19958;-74
2022/04/23 19:04:09;;;;;;;;;;;;;;;13.88;100.00;97159.13;4881022;29;19952;-74
2022/04/23 19:06:37;;;;;;;;;;;;;;;13.88;100.00;97153.53;4892254;29;20253;-76
2022/04/23 19:09:05;;;;;;;;;;;;;;;13.82;100.00;97164.50;4901970;29;19949;-75
2022/04/23 19:11:34;;;;;;;;;;;;;;;13.78;100.00;97177.09;4896902;29;20361;-75